Time;durP1;ratioP1;P1;durP2;ratioP2;P2;SDS_P1;SDS_P2;PMS_P1;PMS_P2;Temp;Humidity;BMP_temperature;BMP_pressure;BME280_temperature;BME280_humidity;BME280_pressure;Samples;Min_cycle;Max_cycle;Signal;HPM_P1;HPM_P2
2023/04/01 00:02:06;;;;;;;20.65;8.15;;;;;;;11.42;100.00;99367.91;6188135;23;20016;-84
2023/04/01 00:04:32;;;;;;;20.70;7.75;;;;;;;11.33;100.00;99374.41;6188375;23;20032;-84
2023/04/01 00:06:57;;;;;;;12.05;6.07;;;;;;;11.34;100.00;99370.72;6188540;23;20040;-87
2023/04/01 00:09:23;;;;;;;12.93;6.15;;;;;;;11.25;100.00;99371.88;6188277;23;20326;-84
2023/04/01 00:11:49;;;;;;;11.77;5.78;;;;;;;11.34;100.00;99365.41;6188560;23;20020;-84
2023/04/01 00:14:15;;;;;;;9.77;5.88;;;;;;;11.63;100.00;99359.88;6187219;23;20029;-89
2023/04/01 00:16:40;;;;;;;15.85;6.60;;;;;;;11.49;100.00;99366.13;6162172;23;20058;-85
2023/04/01 00:19:06;;;;;;;18.65;7.47;;;;;;;11.38;100.00;99366.66;6187963;23;20065;-86
2023/04/01 00:21:33;;;;;;;13.70;6.75;;;;;;;11.53;100.00;99366.56;6188822;23;20080;-85
2023/04/01 00:23:59;;;;;;;11.05;6.50;;;;;;;11.43;100.00;99354.44;6188495;23;20309;-84
2023/04/01 00:26:25;;;;;;;11.80;5.80;;;;;;;11.58;100.00;99359.63;6187677;23;20093;-88
2023/04/01 00:28:54;;;;;;;15.65;6.18;;;;;;;11.77;100.00;99366.06;6188006;23;20020;-87
2023/04/01 00:31:20;;;;;;;13.13;6.35;;;;;;;11.64;100.00;99366.81;6188737;23;20001;-86
2023/04/01 00:33:46;;;;;;;13.65;5.70;;;;;;;11.54;100.00;99366.34;6167990;23;20017;-88
2023/04/01 00:36:17;;;;;;;11.90;5.82;;;;;;;11.40;100.00;99369.97;6188464;23;20425;-89
2023/04/01 00:38:44;;;;;;;9.68;5.22;;;;;;;11.03;100.00;99351.75;6188685;23;20016;-86
2023/04/01 00:41:15;;;;;;;11.18;5.28;;;;;;;11.15;100.00;99353.66;6186731;23;20084;-88
2023/04/01 00:43:47;;;;;;;6.95;4.50;;;;;;;11.35;100.00;99349.31;6187441;23;20013;-86
2023/04/01 00:46:12;;;;;;;13.25;4.82;;;;;;;11.20;100.00;99347.78;6192207;23;20012;-86
2023/04/01 00:48:41;;;;;;;9.25;4.15;;;;;;;10.91;100.00;99351.44;6190400;23;20013;-84
2023/04/01 00:51:20;;;;;;;7.82;4.43;;;;;;;11.08;100.00;99359.94;6186922;23;20009;-86
2023/04/01 00:53:48;;;;;;;8.18;4.07;;;;;;;11.08;100.00;99346.69;6189128;23;20087;-85
2023/04/01 00:56:26;;;;;;;10.75;4.22;;;;;;;11.26;100.00;99352.31;6189088;23;20009;-87
2023/04/01 00:58:59;;;;;;;11.93;4.30;;;;;;;11.11;100.00;99341.81;6189206;23;20103;-85
2023/04/01 01:01:26;;;;;;;7.28;3.63;;;;;;;11.31;100.00;99333.97;6211989;23;20020;-84
2023/04/01 01:03:52;;;;;;;5.57;3.58;;;;;;;11.37;100.00;99323.41;6187789;23;20408;-87
2023/04/01 01:06:24;;;;;;;7.28;3.90;;;;;;;11.20;100.00;99321.28;6188778;23;20013;-84
2023/04/01 01:09:09;;;;;;;6.47;3.40;;;;;;;10.98;100.00;99311.72;6191011;23;20020;-84
2023/04/01 01:12:09;;;;;;;8.38;3.78;;;;;;;10.85;100.00;99310.66;6188262;23;20094;-85
2023/04/01 01:14:39;;;;;;;9.30;3.90;;;;;;;11.01;100.00;99300.75;6186380;23;20091;-89
2023/04/01 01:17:38;;;;;;;6.82;3.65;;;;;;;11.04;100.00;99306.47;6188213;23;20009;-86
2023/04/01 01:20:25;;;;;;;8.05;3.70;;;;;;;11.07;100.00;99302.63;6130808;23;20025;-85
2023/04/01 01:23:20;;;;;;;7.15;3.33;;;;;;;11.07;100.00;99306.09;6156197;23;20547;-86
2023/04/01 01:26:01;;;;;;;7.55;3.30;;;;;;;11.03;100.00;99301.38;6156793;23;20529;-87
2023/04/01 01:28:32;;;;;;;8.95;3.30;;;;;;;11.10;100.00;99299.59;6157913;23;20017;-86
2023/04/01 01:31:22;;;;;;;5.45;2.70;;;;;;;11.14;100.00;99288.38;6169624;23;20144;-85
2023/04/01 01:34:12;;;;;;;6.38;2.80;;;;;;;11.25;100.00;99284.38;6187807;23;20021;-87
2023/04/01 01:36:42;;;;;;;8.40;2.85;;;;;;;11.32;100.00;99287.88;6161129;23;20085;-85
2023/04/01 01:39:09;;;;;;;9.02;2.63;;;;;;;11.37;100.00;99288.09;6187514;23;20444;-84
2023/04/01 01:41:39;;;;;;;5.20;1.73;;;;;;;11.58;100.00;99281.84;6187773;23;20040;-89
2023/04/01 01:44:08;;;;;;;3.83;1.80;;;;;;;11.56;99.22;99276.75;6161767;23;20100;-84
2023/04/01 01:46:33;;;;;;;3.78;1.80;;;;;;;11.58;95.68;99272.06;6187326;23;20009;-86
2023/04/01 01:49:00;;;;;;;5.45;2.25;;;;;;;11.64;93.53;99281.88;6188090;23;20020;-87
2023/04/01 01:51:27;;;;;;;7.63;2.17;;;;;;;11.73;90.93;99274.59;6164880;23;20020;-86
2023/04/01 01:53:53;;;;;;;5.07;2.10;;;;;;;11.83;90.88;99275.03;6167210;23;20005;-86
2023/04/01 01:56:23;;;;;;;3.42;1.90;;;;;;;11.86;89.49;99280.75;6166225;23;20013;-84
2023/04/01 01:58:58;;;;;;;2.95;1.88;;;;;;;11.89;89.34;99291.00;6166078;23;20017;-85
2023/04/01 02:01:29;;;;;;;7.63;2.05;;;;;;;12.10;92.37;99299.78;6190903;23;20016;-84
2023/04/01 02:04:00;;;;;;;2.42;1.50;;;;;;;12.12;92.70;99290.63;6165573;23;20020;-87
2023/04/01 02:06:30;;;;;;;5.38;1.90;;;;;;;11.99;92.28;99300.41;6164486;23;20043;-87
2023/04/01 02:09:00;;;;;;;5.68;1.80;;;;;;;12.05;92.92;99304.91;6165376;23;20013;-85
2023/04/01 02:11:36;;;;;;;7.32;2.25;;;;;;;12.06;94.25;99307.38;6165550;23;20340;-89
2023/04/01 02:14:16;;;;;;;4.78;2.03;;;;;;;11.92;91.31;99313.66;6165189;23;20013;-88
2023/04/01 02:16:55;;;;;;;6.20;2.20;;;;;;;11.90;93.16;99307.72;6141413;23;20094;-85
2023/04/01 02:19:26;;;;;;;5.57;2.60;;;;;;;11.72;96.57;99304.81;6195036;23;20019;-84
2023/04/01 02:22:01;;;;;;;4.40;2.60;;;;;;;11.75;97.28;99293.78;6183086;23;20051;-83
2023/04/01 02:24:30;;;;;;;6.13;2.47;;;;;;;11.49;100.00;99293.66;6173487;23;20060;-84
2023/04/01 02:26:55;;;;;;;5.68;2.88;;;;;;;11.36;100.00;99297.91;6164559;23;20088;-85
2023/04/01 02:29:24;;;;;;;8.77;3.85;;;;;;;11.20;100.00;99308.03;6164156;23;20087;-84
2023/04/01 02:31:51;;;;;;;6.32;3.45;;;;;;;10.92;100.00;99308.03;6191415;23;20020;-85
2023/04/01 02:34:18;;;;;;;10.43;3.55;;;;;;;10.93;100.00;99308.84;6154953;23;20444;-84
2023/04/01 02:36:44;;;;;;;10.15;4.10;;;;;;;10.86;100.00;99314.94;6192647;23;20091;-85
2023/04/01 02:39:10;;;;;;;10.93;4.55;;;;;;;10.95;100.00;99314.78;6190553;23;20020;-88
2023/04/01 02:41:44;;;;;;;13.88;5.70;;;;;;;10.56;100.00;99333.84;6188854;23;20429;-89
2023/04/01 02:44:11;;;;;;;17.08;7.70;;;;;;;10.40;100.00;99344.72;6189037;23;20384;-84
2023/04/01 02:46:37;;;;;;;20.05;9.45;;;;;;;9.94;100.00;99345.03;6189339;23;20029;-85
2023/04/01 02:49:04;;;;;;;19.98;10.65;;;;;;;9.67;100.00;99346.53;6191453;23;20088;-86
2023/04/01 02:51:30;;;;;;;18.17;10.85;;;;;;;9.62;100.00;99351.56;6189292;23;20016;-86
2023/04/01 02:53:55;;;;;;;20.70;12.32;;;;;;;9.47;100.00;99366.63;6188945;23;20005;-86
2023/04/01 02:56:21;;;;;;;22.58;12.68;;;;;;;9.31;100.00;99366.81;6187120;23;20318;-90
2023/04/01 02:58:47;;;;;;;30.33;15.57;;;;;;;9.29;100.00;99368.81;6187041;23;20017;-86
2023/04/01 03:01:13;;;;;;;24.02;15.40;;;;;;;9.25;100.00;99363.06;6186764;23;20020;-87
2023/04/01 03:03:38;;;;;;;28.25;16.60;;;;;;;9.29;100.00;99366.97;6186961;23;20025;-87
2023/04/01 03:06:09;;;;;;;32.15;17.60;;;;;;;9.08;100.00;99366.88;6185626;23;20044;-89
2023/04/01 03:08:35;;;;;;;27.33;17.25;;;;;;;8.80;100.00;99371.94;6185841;23;20009;-84
2023/04/01 03:11:01;;;;;;;31.58;18.13;;;;;;;8.87;100.00;99377.31;6189133;23;20001;-88
2023/04/01 03:13:26;;;;;;;33.92;19.42;;;;;;;8.58;100.00;99372.78;6187156;23;20016;-88
2023/04/01 03:15:52;;;;;;;35.63;19.83;;;;;;;8.34;100.00;99369.50;6186968;23;20035;-85
2023/04/01 03:18:18;;;;;;;32.95;20.35;;;;;;;8.30;100.00;99376.94;6189239;23;20388;-88
2023/04/01 03:20:43;;;;;;;33.78;20.10;;;;;;;8.29;100.00;99370.84;6187632;23;20017;-86
2023/04/01 03:23:09;;;;;;;31.75;19.90;;;;;;;8.58;100.00;99367.50;6188774;23;20013;-85
2023/04/01 03:25:36;;;;;;;35.13;19.13;;;;;;;8.44;100.00;99373.56;6193490;23;20076;-85
2023/04/01 03:28:02;;;;;;;35.65;19.25;;;;;;;8.18;100.00;99381.78;6190424;23;20456;-87
2023/04/01 03:30:31;;;;;;;34.55;18.90;;;;;;;8.13;100.00;99378.00;6188598;23;20013;-86
2023/04/01 03:32:59;;;;;;;34.63;18.70;;;;;;;8.17;100.00;99379.31;6187584;23;20099;-85
2023/04/01 03:35:25;;;;;;;37.50;19.30;;;;;;;8.14;100.00;99377.03;6160132;23;20011;-89
2023/04/01 03:37:51;;;;;;;30.80;18.83;;;;;;;8.07;100.00;99378.72;6161291;23;20009;-85
2023/04/01 03:40:17;;;;;;;36.13;17.90;;;;;;;8.10;100.00;99387.09;6160887;23;20013;-88
2023/04/01 03:42:43;;;;;;;28.35;16.95;;;;;;;8.17;100.00;99384.59;6186524;23;20063;-84
2023/04/01 03:45:09;;;;;;;30.90;17.42;;;;;;;8.26;100.00;99383.53;6160366;23;20008;-85
2023/04/01 03:47:35;;;;;;;31.73;17.27;;;;;;;8.10;100.00;99383.63;6159637;23;20040;-85
2023/04/01 03:50:01;;;;;;;34.97;19.08;;;;;;;8.16;100.00;99380.31;6185975;23;20344;-83
2023/04/01 03:52:26;;;;;;;30.67;16.63;;;;;;;8.49;100.00;99379.13;6160027;23;20020;-85
2023/04/01 03:54:52;;;;;;;32.45;18.98;;;;;;;8.12;100.00;99374.53;6186369;23;20455;-87
2023/04/01 03:57:17;;;;;;;32.22;18.98;;;;;;;7.93;100.00;99366.25;6160268;23;20087;-84
2023/04/01 03:59:43;;;;;;;29.00;17.17;;;;;;;8.00;100.00;99361.94;6159555;23;20009;-85
2023/04/01 04:02:08;;;;;;;27.88;17.55;;;;;;;7.98;100.00;99366.56;6159408;23;20087;-85
2023/04/01 04:04:35;;;;;;;29.95;16.75;;;;;;;7.93;100.00;99366.25;6159712;23;20023;-85
2023/04/01 04:07:00;;;;;;;28.10;15.60;;;;;;;8.01;100.00;99366.22;6159585;23;20013;-85
2023/04/01 04:09:35;;;;;;;35.75;15.45;;;;;;;7.81;100.00;99379.03;6135406;23;20045;-84
2023/04/01 04:12:01;;;;;;;30.13;16.08;;;;;;;7.73;100.00;99371.13;6186361;23;20013;-84
2023/04/01 04:14:27;;;;;;;24.88;14.98;;;;;;;7.77;100.00;99373.28;6159591;23;20353;-84
2023/04/01 04:16:53;;;;;;;30.65;16.67;;;;;;;7.88;100.00;99373.88;6159960;23;20333;-85
2023/04/01 04:19:18;;;;;;;30.27;16.05;;;;;;;7.90;100.00;99377.97;6160090;23;20009;-87
2023/04/01 04:21:44;;;;;;;31.80;16.33;;;;;;;7.85;100.00;99376.88;6160264;23;20032;-86
2023/04/01 04:24:10;;;;;;;30.50;16.98;;;;;;;7.93;100.00;99387.34;6159723;23;20025;-86
2023/04/01 04:26:55;;;;;;;24.80;16.30;;;;;;;8.06;100.00;99388.44;6187596;23;20013;-86
2023/04/01 04:29:22;;;;;;;26.80;15.52;;;;;;;8.36;100.00;99388.63;6169405;23;20048;-84
2023/04/01 04:31:48;;;;;;;28.80;16.13;;;;;;;8.28;100.00;99386.88;6173064;23;20013;-84
2023/04/01 04:34:13;;;;;;;35.50;16.33;;;;;;;8.49;100.00;99399.41;6190630;23;20471;-84
2023/04/01 04:36:39;;;;;;;27.00;15.05;;;;;;;8.14;100.00;99395.50;6162521;23;20013;-84
2023/04/01 04:39:05;;;;;;;24.02;14.68;;;;;;;8.04;100.00;99397.53;6161840;23;20013;-84
2023/04/01 04:41:32;;;;;;;26.33;14.10;;;;;;;8.00;100.00;99397.06;6160924;23;20009;-88
2023/04/01 04:43:59;;;;;;;23.48;13.80;;;;;;;8.06;100.00;99398.16;6139123;23;20017;-84
2023/04/01 04:46:25;;;;;;;28.63;14.55;;;;;;;7.84;100.00;99394.50;6161240;23;20013;-85
2023/04/01 04:48:57;;;;;;;18.17;9.25;;;;;;;7.59;100.00;99406.94;6160401;23;20021;-87
2023/04/01 04:51:23;;;;;;;21.70;13.10;;;;;;;7.52;100.00;99406.00;6161325;23;20019;-84
2023/04/01 04:53:50;;;;;;;18.58;12.73;;;;;;;7.48;100.00;99398.59;6160852;23;20044;-83
2023/04/01 04:56:25;;;;;;;28.05;13.27;;;;;;;7.51;100.00;99400.91;6160623;23;20009;-84
2023/04/01 04:59:03;;;;;;;18.67;12.27;;;;;;;7.32;100.00;99398.66;6161081;23;20456;-86
2023/04/01 05:01:39;;;;;;;22.00;12.02;;;;;;;7.28;100.00;99399.00;6161526;23;20356;-85
2023/04/01 05:04:06;;;;;;;24.35;12.43;;;;;;;7.39;100.00;99400.41;6187909;23;20024;-85
2023/04/01 05:06:31;;;;;;;29.73;14.20;;;;;;;7.48;100.00;99412.59;6160955;23;20340;-84
2023/04/01 05:08:57;;;;;;;33.92;14.95;;;;;;;7.40;100.00;99411.78;6162090;23;20040;-87
2023/04/01 05:11:23;;;;;;;28.05;15.45;;;;;;;7.39;100.00;99410.97;6163654;23;20009;-84
2023/04/01 05:13:50;;;;;;;27.90;15.00;;;;;;;7.50;100.00;99420.31;6162403;23;20011;-84
2023/04/01 05:16:18;;;;;;;29.52;14.27;;;;;;;7.63;100.00;99421.44;6163616;23;20032;-86
2023/04/01 05:18:45;;;;;;;26.75;14.93;;;;;;;7.50;100.00;99423.78;6164218;23;20013;-86
2023/04/01 05:21:12;;;;;;;24.48;14.32;;;;;;;8.14;100.00;99419.25;6170697;23;20004;-85
2023/04/01 05:23:38;;;;;;;23.83;14.75;;;;;;;8.71;100.00;99431.13;6178085;23;19997;-83
2023/04/01 05:26:14;;;;;;;53.22;29.40;;;;;;;9.27;100.00;99435.09;6174946;23;20009;-85
2023/04/01 05:28:40;;;;;;;32.92;15.60;;;;;;;9.50;100.00;99437.66;6161906;23;20009;-86
2023/04/01 05:31:06;;;;;;;28.77;15.77;;;;;;;9.96;100.00;99432.16;6160856;23;20020;-81
2023/04/01 05:33:38;;;;;;;24.70;11.23;;;;;;;10.70;100.00;99431.00;6166539;23;20017;-83
2023/04/01 05:36:12;;;;;;;31.48;16.85;;;;;;;11.71;100.00;99442.00;6160440;23;20088;-86
2023/04/01 05:38:38;;;;;;;28.85;17.50;;;;;;;12.11;100.00;99444.84;6187953;23;20051;-85
2023/04/01 05:41:06;;;;;;;24.70;13.60;;;;;;;12.57;100.00;99455.63;6186051;23;20016;-84
2023/04/01 05:43:37;;;;;;;25.40;13.32;;;;;;;13.34;100.00;99450.63;6185838;23;20532;-87
2023/04/01 05:46:20;;;;;;;18.95;11.95;;;;;;;13.55;100.00;99463.72;6186488;23;20016;-82
2023/04/01 05:48:55;;;;;;;25.85;13.45;;;;;;;13.67;100.00;99461.22;6185777;23;20064;-85
2023/04/01 05:51:23;;;;;;;30.42;13.30;;;;;;;14.27;100.00;99452.03;6187484;23;20432;-88
2023/04/01 05:53:48;;;;;;;23.95;13.80;;;;;;;14.41;100.00;99458.97;6185058;23;20035;-86
2023/04/01 05:56:14;;;;;;;33.45;13.48;;;;;;;13.88;100.00;99464.47;6185743;23;20436;-86
2023/04/01 05:58:51;;;;;;;25.47;12.60;;;;;;;14.11;100.00;99474.66;6186401;23;20096;-88
2023/04/01 06:01:18;;;;;;;27.17;15.18;;;;;;;14.41;100.00;99477.63;6185421;23;20244;-87
2023/04/01 06:03:44;;;;;;;31.83;16.77;;;;;;;14.26;100.00;99482.38;6186560;23;20024;-87
2023/04/01 06:06:24;;;;;;;25.20;15.15;;;;;;;15.66;100.00;99482.94;6188738;23;20009;-89
2023/04/01 06:08:51;;;;;;;27.55;15.45;;;;;;;15.07;100.00;99471.91;6184888;23;20017;-87
2023/04/01 06:11:36;;;;;;;28.73;14.82;;;;;;;15.94;100.00;99488.59;6187263;23;20009;-88
2023/04/01 06:14:07;;;;;;;27.83;15.88;;;;;;;15.56;100.00;99489.81;6187518;23;20013;-87
2023/04/01 06:16:58;;;;;;;32.45;14.63;;;;;;;15.72;100.00;99487.38;6185712;23;20384;-88
2023/04/01 06:19:32;;;;;;;32.35;16.25;;;;;;;14.04;100.00;99494.34;6186900;23;20013;-84
2023/04/01 06:22:23;;;;;;;27.50;16.50;;;;;;;14.62;100.00;99492.47;6187615;23;20023;-86
2023/04/01 06:25:19;;;;;;;29.77;15.07;;;;;;;14.71;100.00;99508.06;6185632;23;20017;-88
2023/04/01 06:27:50;;;;;;;33.38;17.65;;;;;;;15.01;100.00;99500.28;6185145;23;20013;-86
2023/04/01 06:30:40;;;;;;;35.60;16.03;;;;;;;15.35;100.00;99509.66;6187978;23;20023;-93
2023/04/01 06:33:49;;;;;;;36.42;17.73;;;;;;;14.86;100.00;99511.25;6188671;23;20017;-85
2023/04/01 06:36:42;;;;;;;28.52;17.63;;;;;;;14.93;100.00;99497.84;6162246;23;20017;-83
2023/04/01 06:39:26;;;;;;;27.75;17.42;;;;;;;15.94;100.00;99501.97;6161896;23;20016;-86
2023/04/01 06:42:05;;;;;;;27.20;16.92;;;;;;;15.62;100.00;99503.09;6140010;23;20337;-86
2023/04/01 06:44:55;;;;;;;29.75;17.30;;;;;;;15.81;100.00;99504.75;6161774;23;20096;-86
2023/04/01 06:47:57;;;;;;;28.63;16.70;;;;;;;16.23;100.00;99499.59;6187353;23;20027;-84
2023/04/01 06:51:02;;;;;;;26.47;15.97;;;;;;;16.32;100.00;99500.94;6187294;23;20028;-84
2023/04/01 06:54:10;;;;;;;32.90;15.70;;;;;;;15.87;100.00;99500.41;6164733;23;20248;-86
2023/04/01 06:57:00;;;;;;;24.58;15.90;;;;;;;16.13;100.00;99510.00;6187942;23;20028;-86
2023/04/01 06:59:30;;;;;;;28.73;15.75;;;;;;;16.20;100.00;99497.38;6162625;23;20016;-92
2023/04/01 07:02:25;;;;;;;28.02;16.10;;;;;;;15.76;100.00;99507.28;6188736;23;20412;-88
2023/04/01 07:04:57;;;;;;;28.58;15.95;;;;;;;16.66;100.00;99508.34;6163932;23;20443;-85
2023/04/01 07:07:37;;;;;;;26.23;15.05;;;;;;;17.15;100.00;99493.03;6164647;23;20027;-89
2023/04/01 07:10:17;;;;;;;31.63;14.93;;;;;;;18.23;92.98;99501.50;6165823;23;20017;-85
2023/04/01 07:13:13;;;;;;;23.92;14.27;;;;;;;18.36;88.99;99499.34;6150160;23;20024;-84
2023/04/01 07:16:04;;;;;;;19.63;12.35;;;;;;;20.22;82.98;99492.03;6162551;23;20012;-87
2023/04/01 07:18:43;;;;;;;18.13;12.40;;;;;;;21.82;67.67;99508.19;6165643;23;20083;-84
2023/04/01 07:21:44;;;;;;;25.23;13.70;;;;;;;20.87;70.53;99500.09;6191716;23;20041;-88
2023/04/01 07:24:25;;;;;;;32.10;15.90;;;;;;;19.53;73.94;99486.19;6164344;23;20017;-82
2023/04/01 07:27:01;;;;;;;29.83;14.57;;;;;;;19.63;74.74;99489.03;6163083;23;20005;-82
2023/04/01 07:29:30;;;;;;;33.25;15.63;;;;;;;18.33;82.10;99486.41;6163295;23;20020;-83
2023/04/01 07:32:16;;;;;;;27.05;14.75;;;;;;;17.48;89.92;99491.47;6164498;23;20032;-85
2023/04/01 07:35:05;;;;;;;20.58;13.27;;;;;;;18.28;82.52;99486.31;6186241;23;20409;-87
2023/04/01 07:37:40;;;;;;;22.52;13.15;;;;;;;19.05;78.00;99490.25;6192609;23;20006;-83
2023/04/01 07:40:35;;;;;;;26.13;13.02;;;;;;;18.87;76.54;99493.13;6164346;23;20013;-85
2023/04/01 07:43:20;;;;;;;21.95;13.07;;;;;;;19.25;75.26;99495.16;6193132;23;20348;-86
2023/04/01 07:46:01;;;;;;;32.40;14.00;;;;;;;20.07;73.58;99496.16;6191482;23;20009;-86
2023/04/01 07:48:45;;;;;;;20.88;12.85;;;;;;;21.26;66.17;99506.97;6192313;23;20013;-84
2023/04/01 07:51:16;;;;;;;18.33;11.35;;;;;;;23.55;55.24;99505.03;6196829;23;20009;-84
2023/04/01 07:53:50;;;;;;;19.45;11.48;;;;;;;22.56;49.34;99508.06;6191139;23;20017;-85
2023/04/01 07:56:38;;;;;;;21.35;12.50;;;;;;;21.75;52.48;99502.22;6191130;23;20016;-87
2023/04/01 07:59:16;;;;;;;21.52;12.23;;;;;;;23.49;48.60;99500.72;6189173;23;20020;-84
2023/04/01 08:02:14;;;;;;;17.80;10.95;;;;;;;23.90;40.49;99510.41;6188401;23;20017;-87
2023/04/01 08:05:06;;;;;;;27.45;11.55;;;;;;;22.10;47.69;99509.75;6190988;23;20314;-85
2023/04/01 08:08:03;;;;;;;21.48;12.57;;;;;;;21.55;53.56;99499.38;6190302;23;20013;-86
2023/04/01 08:11:06;;;;;;;27.55;13.40;;;;;;;20.91;53.76;99496.63;6191130;23;20026;-85
2023/04/01 08:14:13;;;;;;;18.27;11.40;;;;;;;21.15;54.46;99499.84;6190217;23;20055;-83
2023/04/01 08:17:04;;;;;;;21.15;11.70;;;;;;;20.51;55.37;99501.59;6146773;23;20048;-85
2023/04/01 08:20:16;;;;;;;30.85;10.82;;;;;;;21.81;51.29;99501.16;6188506;23;20016;-84
2023/04/01 08:22:50;;;;;;;16.00;9.65;;;;;;;21.72;49.20;99508.13;6192123;23;20040;-83
2023/04/01 08:25:32;;;;;;;19.52;9.25;;;;;;;22.05;47.59;99512.41;6205998;23;20013;-84
2023/04/01 08:28:15;;;;;;;21.58;9.57;;;;;;;22.31;46.47;99511.47;6190866;23;20065;-85
2023/04/01 08:30:49;;;;;;;23.00;9.73;;;;;;;22.37;47.59;99515.03;6213029;23;20013;-87
2023/04/01 08:33:24;;;;;;;14.85;9.45;;;;;;;22.85;46.88;99506.56;6165526;23;20021;-88
2023/04/01 08:36:23;;;;;;;20.92;9.65;;;;;;;23.78;43.99;99503.66;6186602;23;20013;-87
2023/04/01 08:39:22;;;;;;;21.17;9.27;;;;;;;23.63;43.51;99507.22;6143636;23;20019;-85
2023/04/01 08:42:08;;;;;;;16.55;9.52;;;;;;;23.47;44.64;99508.28;6193657;23;20009;-86
2023/04/01 08:45:18;;;;;;;16.33;10.25;;;;;;;23.06;46.18;99508.25;6194211;23;20060;-85
2023/04/01 08:48:19;;;;;;;22.15;8.77;;;;;;;23.21;45.74;99510.13;6190633;23;20024;-85
2023/04/01 08:51:22;;;;;;;23.63;9.23;;;;;;;23.08;44.78;99497.97;6188644;23;20012;-85
2023/04/01 08:54:06;;;;;;;;;;;;;;;23.53;43.10;99499.09;6190579;23;20013;-83
2023/04/01 08:56:41;;;;;;;24.60;7.55;;;;;;;24.30;40.36;99503.28;6192979;23;19970;-85
2023/04/01 08:59:37;;;;;;;13.07;7.40;;;;;;;24.56;40.87;99510.25;6190812;23;20008;-87
2023/04/01 09:02:47;;;;;;;14.35;7.53;;;;;;;24.16;40.75;99503.09;6189471;23;20013;-85
2023/04/01 09:05:52;;;;;;;15.35;7.10;;;;;;;24.35;41.00;99503.28;6215179;23;20024;-85
2023/04/01 09:08:56;;;;;;;15.07;6.70;;;;;;;24.24;39.59;99507.09;6189451;23;20063;-87
2023/04/01 09:12:04;;;;;;;23.48;6.30;;;;;;;24.78;37.28;99510.66;6187486;23;20081;-85
2023/04/01 09:15:09;;;;;;;11.45;6.45;;;;;;;25.08;37.02;99507.81;6219124;23;20040;-87
2023/04/01 09:18:14;;;;;;;12.88;6.18;;;;;;;24.65;37.69;99500.44;6189285;23;20119;-85
2023/04/01 09:23:43;;;;;;;15.98;7.60;;;;;;;24.89;38.49;99509.53;6202819;23;20021;-87
2023/04/01 09:32:18;;;;;;;7.35;3.08;;;;;;;26.14;32.34;99515.03;6204864;23;20021;-87
2023/04/01 09:36:21;;;;;;;6.47;2.47;;;;;;;25.78;31.13;99513.78;6171442;23;20021;-84
2023/04/01 09:39:06;;;;;;;7.93;2.25;;;;;;;26.93;29.69;99520.91;6232122;23;20027;-86
2023/04/01 09:42:07;;;;;;;3.55;0.88;;;;;;;25.93;24.79;99524.47;6199062;23;20012;-86
2023/04/01 09:44:59;;;;;;;6.03;0.50;;;;;;;25.94;22.65;99528.81;6172946;23;20024;-92
2023/04/01 09:47:50;;;;;;;12.50;1.10;;;;;;;26.63;22.26;99522.09;6219265;23;20009;-88
2023/04/01 09:50:40;;;;;;;41.03;1.88;;;;;;;26.96;21.58;99521.13;6195901;23;20076;-92
2023/04/01 09:53:29;;;;;;;3.75;0.28;;;;;;;26.83;20.40;99523.75;6192856;23;20099;-90
2023/04/01 09:56:20;;;;;;;9.80;0.50;;;;;;;27.30;19.75;99517.34;6198609;23;20009;-87
2023/04/01 09:59:20;;;;;;;12.30;0.88;;;;;;;27.49;19.02;99510.00;6228680;23;20012;-84
2023/04/01 10:02:18;;;;;;;3.20;0.20;;;;;;;26.98;19.51;99513.47;6227305;23;20047;-91
2023/04/01 10:05:14;;;;;;;4.18;0.63;;;;;;;28.04;20.70;99508.22;6196706;23;20021;-91
2023/04/01 10:08:11;;;;;;;3.35;0.50;;;;;;;27.83;20.05;99498.78;6201892;23;20064;-87
2023/04/01 10:11:22;;;;;;;1.80;0.28;;;;;;;29.52;18.88;99510.19;6229718;23;20008;-87
2023/04/01 10:13:58;;;;;;;2.20;0.63;;;;;;;29.79;18.59;99499.13;6173647;23;20086;-88
2023/04/01 10:16:42;;;;;;;0.98;0.20;;;;;;;29.14;16.60;99509.72;6201121;23;20012;-90
2023/04/01 10:19:28;;;;;;;5.65;0.43;;;;;;;28.07;16.00;99511.13;6201556;23;20018;-90
2023/04/01 10:22:15;;;;;;;4.30;0.40;;;;;;;28.64;16.47;99506.97;6190651;23;20014;-85
2023/04/01 10:24:56;;;;;;;6.13;0.43;;;;;;;29.17;16.68;99493.53;6211941;23;20020;-88
2023/04/01 10:28:01;;;;;;;5.97;0.40;;;;;;;29.15;16.07;99498.50;6197977;23;20020;-88
2023/04/01 10:31:19;;;;;;;1.00;0.20;;;;;;;29.06;16.84;99497.63;6168145;23;20023;-87
2023/04/01 10:34:15;;;;;;;0.73;0.30;;;;;;;28.75;17.00;99496.69;6136433;23;20024;-88
2023/04/01 10:37:38;;;;;;;0.32;0.25;;;;;;;29.25;17.27;99494.75;6136788;23;20017;-86
2023/04/01 10:40:04;;;;;;;1.10;0.15;;;;;;;29.24;15.82;99491.19;6017068;23;20023;-91
2023/04/01 10:43:00;;;;;;;4.20;0.50;;;;;;;29.11;16.54;99485.78;6038504;23;20027;-87
2023/04/01 10:45:48;;;;;;;0.10;0.10;;;;;;;30.46;15.34;99496.22;6083007;23;20022;-87
2023/04/01 10:48:40;;;;;;;3.03;0.20;;;;;;;30.67;14.51;99502.69;6073646;23;20489;-87
2023/04/01 10:51:21;;;;;;;4.78;0.30;;;;;;;29.66;15.67;99484.41;6068087;23;20014;-84
2023/04/01 10:54:30;;;;;;;1.10;0.10;;;;;;;28.57;15.75;99484.00;6068596;23;20093;-86
2023/04/01 10:57:51;;;;;;;2.47;0.20;;;;;;;29.06;16.18;99486.72;6048433;23;20303;-88
2023/04/01 11:00:57;;;;;;;2.13;0.20;;;;;;;30.39;15.67;99476.72;6069412;23;20026;-88
2023/04/01 11:04:00;;;;;;;5.00;0.22;;;;;;;29.40;15.73;99474.47;6094649;23;20389;-88
2023/04/01 11:07:22;;;;;;;0.28;0.10;;;;;;;28.99;15.45;99480.06;6098142;23;20032;-88
2023/04/01 11:10:21;;;;;;;0.43;0.20;;;;;;;29.67;15.96;99468.84;6098124;23;20008;-87
2023/04/01 11:13:32;;;;;;;0.60;0.20;;;;;;;29.77;14.94;99476.75;6193914;23;20024;-86
2023/04/01 11:15:57;;;;;;;0.47;0.10;;;;;;;29.05;14.93;99474.19;6191863;23;20373;-88
2023/04/01 11:18:51;;;;;;;0.45;0.10;;;;;;;28.99;15.01;99469.97;6192885;23;20013;-87
2023/04/01 11:21:45;;;;;;;1.27;0.20;;;;;;;29.42;14.77;99470.31;6193037;23;20013;-88
2023/04/01 11:24:19;;;;;;;1.27;0.20;;;;;;;29.62;15.10;99461.59;6200662;23;20068;-86
2023/04/01 11:27:06;;;;;;;4.78;0.17;;;;;;;30.40;14.03;99467.38;6196135;23;20012;-86
2023/04/01 11:29:54;;;;;;;0.65;0.17;;;;;;;30.40;13.91;99459.16;6196853;23;20447;-85
2023/04/01 11:32:49;;;;;;;0.93;0.28;;;;;;;30.68;13.78;99471.50;6214378;23;20016;-86
2023/04/01 11:35:15;;;;;;;0.55;0.17;;;;;;;31.49;13.49;99463.41;6217287;23;20030;-86
2023/04/01 11:37:44;;;;;;;2.17;0.10;;;;;;;32.46;12.19;99469.84;6193163;23;20021;-85
2023/04/01 11:40:51;;;;;;;2.90;0.30;;;;;;;31.49;12.17;99460.66;6186186;23;20125;-89
2023/04/01 11:43:47;;;;;;;0.50;0.10;;;;;;;31.97;12.68;99463.13;6200622;23;20028;-88
2023/04/01 11:46:38;;;;;;;1.10;0.20;;;;;;;32.39;12.10;99462.13;6209936;23;20017;-87
2023/04/01 11:49:19;;;;;;;0.45;0.10;;;;;;;32.16;12.23;99453.41;6209165;23;20056;-86
2023/04/01 11:52:33;;;;;;;4.78;0.50;;;;;;;30.66;13.13;99451.84;6230546;23;20013;-89
2023/04/01 11:55:17;;;;;;;0.63;0.10;;;;;;;29.94;13.43;99435.88;6187093;23;20032;-89
2023/04/01 12:03:42;;;;;;;2.28;0.55;;;;;;;26.01;16.70;99434.25;6206506;23;20027;-88
2023/04/01 12:06:16;;;;;;;0.20;0.10;;;;;;;24.61;17.21;99426.22;6213573;23;20003;-88
2023/04/01 12:09:19;;;;;;;0.20;0.10;;;;;;;23.59;17.88;99412.28;6213405;23;20056;-86
2023/04/01 12:12:08;;;;;;;1.13;0.15;;;;;;;23.31;19.01;99406.59;6213371;23;20025;-87
2023/04/01 12:15:13;;;;;;;1.45;0.43;;;;;;;23.03;19.09;99405.25;6198065;23;20013;-91
2023/04/01 12:18:11;;;;;;;0.70;0.22;;;;;;;22.92;19.70;99404.44;6191963;23;20009;-91
2023/04/01 12:21:14;;;;;;;0.93;0.20;;;;;;;23.03;18.86;99405.25;6109214;23;20075;-91
2023/04/01 12:24:20;;;;;;;1.67;0.22;;;;;;;22.96;19.67;99405.53;6161006;23;20048;-88
2023/04/01 12:27:09;;;;;;;1.45;0.40;;;;;;;23.03;19.44;99402.56;6169607;23;20018;-89
2023/04/01 12:30:18;;;;;;;0.85;0.20;;;;;;;22.74;19.67;99399.56;6157569;23;20445;-90
2023/04/01 12:33:19;;;;;;;2.03;0.20;;;;;;;22.78;21.18;99403.34;6169755;23;20047;-89
2023/04/01 12:35:55;;;;;;;1.10;0.20;;;;;;;23.18;20.46;99397.94;6185141;23;20036;-88